sensor_id;sensor_type;location;lat;lon;timestamp;temperature;humidity
60293;DHT22;52402;52.670;6.750;2023-07-29T00:01:44;18.10;99.90
60293;DHT22;52402;52.670;6.750;2023-07-29T00:04:11;18.10;99.90
60293;DHT22;52402;52.670;6.750;2023-07-29T00:06:37;18.10;99.90
60293;DHT22;52402;52.670;6.750;2023-07-29T00:09:03;18.10;99.90
60293;DHT22;52402;52.670;6.750;2023-07-29T00:11:28;18.10;99.90
60293;DHT22;52402;52.670;6.750;2023-07-29T00:13:54;18.10;99.90
60293;DHT22;52402;52.670;6.750;2023-07-29T00:16:20;18.10;99.90
60293;DHT22;52402;52.670;6.750;2023-07-29T00:18:49;18.10;99.90
60293;DHT22;52402;52.670;6.750;2023-07-29T00:21:15;18.20;99.90
60293;DHT22;52402;52.670;6.750;2023-07-29T00:23:40;18.10;99.90
60293;DHT22;52402;52.670;6.750;2023-07-29T00:26:06;18.10;99.90
60293;DHT22;52402;52.670;6.750;2023-07-29T00:28:32;18.10;99.90
60293;DHT22;52402;52.670;6.750;2023-07-29T00:30:57;18.10;99.90
60293;DHT22;52402;52.670;6.750;2023-07-29T00:33:23;18.00;99.90
60293;DHT22;52402;52.670;6.750;2023-07-29T00:35:49;18.00;99.90
60293;DHT22;52402;52.670;6.750;2023-07-29T00:38:14;17.90;99.90
60293;DHT22;52402;52.670;6.750;2023-07-29T00:40:40;17.90;99.90
60293;DHT22;52402;52.670;6.750;2023-07-29T00:43:06;17.90;99.90
60293;DHT22;52402;52.670;6.750;2023-07-29T00:45:32;17.90;99.90
60293;DHT22;52402;52.670;6.750;2023-07-29T00:47:59;17.90;99.90
60293;DHT22;52402;52.670;6.750;2023-07-29T00:50:26;17.90;99.90
60293;DHT22;52402;52.670;6.750;2023-07-29T00:52:54;17.90;99.90
60293;DHT22;52402;52.670;6.750;2023-07-29T00:55:20;17.80;99.90
60293;DHT22;52402;52.670;6.750;2023-07-29T00:57:46;17.80;99.90
60293;DHT22;52402;52.670;6.750;2023-07-29T01:00:14;17.80;99.90
60293;DHT22;52402;52.670;6.750;2023-07-29T01:02:42;17.80;99.90
60293;DHT22;52402;52.670;6.750;2023-07-29T01:05:08;17.80;99.90
60293;DHT22;52402;52.670;6.750;2023-07-29T01:13:13;17.90;99.90
60293;DHT22;52402;52.670;6.750;2023-07-29T01:15:54;17.90;99.90
60293;DHT22;52402;52.670;6.750;2023-07-29T01:18:30;17.90;99.90
60293;DHT22;52402;52.670;6.750;2023-07-29T01:21:02;17.90;99.90
60293;DHT22;52402;52.670;6.750;2023-07-29T01:23:33;17.90;99.90
60293;DHT22;52402;52.670;6.750;2023-07-29T01:25:59;17.90;99.90
60293;DHT22;52402;52.670;6.750;2023-07-29T01:28:25;17.90;99.90
60293;DHT22;52402;52.670;6.750;2023-07-29T01:33:56;17.80;99.90
60293;DHT22;52402;52.670;6.750;2023-07-29T01:36:26;17.80;99.90
60293;DHT22;52402;52.670;6.750;2023-07-29T01:38:53;17.70;99.90
60293;DHT22;52402;52.670;6.750;2023-07-29T01:41:20;17.70;99.90
60293;DHT22;52402;52.670;6.750;2023-07-29T01:43:47;17.70;99.90
60293;DHT22;52402;52.670;6.750;2023-07-29T01:46:16;17.60;99.90
60293;DHT22;52402;52.670;6.750;2023-07-29T01:48:42;17.60;99.90
60293;DHT22;52402;52.670;6.750;2023-07-29T01:51:08;17.60;99.90
60293;DHT22;52402;52.670;6.750;2023-07-29T01:53:34;17.50;99.90
60293;DHT22;52402;52.670;6.750;2023-07-29T01:56:00;17.50;99.90
60293;DHT22;52402;52.670;6.750;2023-07-29T01:58:27;17.50;99.90
60293;DHT22;52402;52.670;6.750;2023-07-29T02:00:52;17.50;99.90
60293;DHT22;52402;52.670;6.750;2023-07-29T02:03:18;17.40;99.90
60293;DHT22;52402;52.670;6.750;2023-07-29T02:05:43;17.40;99.90
60293;DHT22;52402;52.670;6.750;2023-07-29T02:08:10;17.40;99.90
60293;DHT22;52402;52.670;6.750;2023-07-29T02:10:36;17.40;99.90
60293;DHT22;52402;52.670;6.750;2023-07-29T02:13:03;17.40;99.90
60293;DHT22;52402;52.670;6.750;2023-07-29T02:15:29;17.40;99.90
60293;DHT22;52402;52.670;6.750;2023-07-29T02:17:55;17.40;99.90
60293;DHT22;52402;52.670;6.750;2023-07-29T02:20:20;17.40;99.90
60293;DHT22;52402;52.670;6.750;2023-07-29T02:22:46;17.40;99.90
60293;DHT22;52402;52.670;6.750;2023-07-29T02:25:14;17.40;99.90
60293;DHT22;52402;52.670;6.750;2023-07-29T02:27:39;17.40;99.90
60293;DHT22;52402;52.670;6.750;2023-07-29T02:30:05;17.40;99.90
60293;DHT22;52402;52.670;6.750;2023-07-29T02:32:31;17.40;99.90
60293;DHT22;52402;52.670;6.750;2023-07-29T02:34:57;17.40;99.90
60293;DHT22;52402;52.670;6.750;2023-07-29T02:37:22;17.40;99.90
60293;DHT22;52402;52.670;6.750;2023-07-29T02:39:48;17.40;99.90
60293;DHT22;52402;52.670;6.750;2023-07-29T02:42:14;17.30;99.90
60293;DHT22;52402;52.670;6.750;2023-07-29T02:44:40;17.30;99.90
60293;DHT22;52402;52.670;6.750;2023-07-29T02:47:05;17.20;99.90
60293;DHT22;52402;52.670;6.750;2023-07-29T02:49:31;17.20;99.90
60293;DHT22;52402;52.670;6.750;2023-07-29T02:51:57;17.10;99.90
60293;DHT22;52402;52.670;6.750;2023-07-29T02:54:22;17.10;99.90
60293;DHT22;52402;52.670;6.750;2023-07-29T02:56:49;17.10;99.90
60293;DHT22;52402;52.670;6.750;2023-07-29T02:59:15;17.00;99.90
60293;DHT22;52402;52.670;6.750;2023-07-29T03:01:40;17.00;99.90
60293;DHT22;52402;52.670;6.750;2023-07-29T03:04:06;17.00;99.90
60293;DHT22;52402;52.670;6.750;2023-07-29T03:06:32;16.90;99.90
60293;DHT22;52402;52.670;6.750;2023-07-29T03:08:57;16.90;99.90
60293;DHT22;52402;52.670;6.750;2023-07-29T03:11:23;16.90;99.90
60293;DHT22;52402;52.670;6.750;2023-07-29T03:13:49;16.90;99.90
60293;DHT22;52402;52.670;6.750;2023-07-29T03:16:16;16.80;99.90
60293;DHT22;52402;52.670;6.750;2023-07-29T03:18:43;16.80;99.90
60293;DHT22;52402;52.670;6.750;2023-07-29T03:21:09;16.80;99.90
60293;DHT22;52402;52.670;6.750;2023-07-29T03:23:35;16.80;99.90
60293;DHT22;52402;52.670;6.750;2023-07-29T03:26:02;16.80;99.90
60293;DHT22;52402;52.670;6.750;2023-07-29T03:28:36;16.80;99.90
60293;DHT22;52402;52.670;6.750;2023-07-29T03:31:02;16.80;99.90
60293;DHT22;52402;52.670;6.750;2023-07-29T03:33:29;16.80;99.90
60293;DHT22;52402;52.670;6.750;2023-07-29T03:35:54;16.80;99.90
60293;DHT22;52402;52.670;6.750;2023-07-29T03:38:20;16.80;99.90
60293;DHT22;52402;52.670;6.750;2023-07-29T03:40:46;16.80;99.90
60293;DHT22;52402;52.670;6.750;2023-07-29T03:43:12;16.80;99.90
60293;DHT22;52402;52.670;6.750;2023-07-29T03:45:38;16.80;99.90
60293;DHT22;52402;52.670;6.750;2023-07-29T03:48:04;16.80;99.90
60293;DHT22;52402;52.670;6.750;2023-07-29T03:50:30;16.80;99.90
60293;DHT22;52402;52.670;6.750;2023-07-29T03:52:56;16.80;99.90
60293;DHT22;52402;52.670;6.750;2023-07-29T03:55:22;16.70;99.90
60293;DHT22;52402;52.670;6.750;2023-07-29T03:57:48;16.70;99.90
60293;DHT22;52402;52.670;6.750;2023-07-29T04:00:14;16.70;99.90
60293;DHT22;52402;52.670;6.750;2023-07-29T04:02:40;16.70;99.90
60293;DHT22;52402;52.670;6.750;2023-07-29T04:05:07;16.70;99.90
60293;DHT22;52402;52.670;6.750;2023-07-29T04:07:36;16.70;99.90
60293;DHT22;52402;52.670;6.750;2023-07-29T04:10:03;16.70;99.90
60293;DHT22;52402;52.670;6.750;2023-07-29T04:12:29;16.60;99.90
60293;DHT22;52402;52.670;6.750;2023-07-29T04:14:54;16.70;99.90
60293;DHT22;52402;52.670;6.750;2023-07-29T04:17:20;16.70;99.90
60293;DHT22;52402;52.670;6.750;2023-07-29T04:19:46;16.70;99.90
60293;DHT22;52402;52.670;6.750;2023-07-29T04:22:11;16.70;99.90
60293;DHT22;52402;52.670;6.750;2023-07-29T04:24:37;16.70;99.90
60293;DHT22;52402;52.670;6.750;2023-07-29T04:27:03;16.70;99.90
60293;DHT22;52402;52.670;6.750;2023-07-29T04:29:29;16.70;99.90
60293;DHT22;52402;52.670;6.750;2023-07-29T04:31:55;16.70;99.90
60293;DHT22;52402;52.670;6.750;2023-07-29T04:34:21;16.80;99.90
60293;DHT22;52402;52.670;6.750;2023-07-29T04:36:47;16.80;99.90
60293;DHT22;52402;52.670;6.750;2023-07-29T04:39:13;16.80;99.90
60293;DHT22;52402;52.670;6.750;2023-07-29T04:41:38;16.80;99.90
60293;DHT22;52402;52.670;6.750;2023-07-29T04:44:04;16.90;99.90
60293;DHT22;52402;52.670;6.750;2023-07-29T04:46:29;16.80;99.90
60293;DHT22;52402;52.670;6.750;2023-07-29T04:48:55;16.90;99.90
60293;DHT22;52402;52.670;6.750;2023-07-29T04:51:21;16.90;99.90
60293;DHT22;52402;52.670;6.750;2023-07-29T04:53:47;16.90;99.90
60293;DHT22;52402;52.670;6.750;2023-07-29T04:56:13;16.90;99.90
60293;DHT22;52402;52.670;6.750;2023-07-29T04:58:38;16.90;99.90
60293;DHT22;52402;52.670;6.750;2023-07-29T05:01:04;16.90;99.90
60293;DHT22;52402;52.670;6.750;2023-07-29T05:03:30;16.90;99.90
60293;DHT22;52402;52.670;6.750;2023-07-29T05:05:56;16.90;99.90
60293;DHT22;52402;52.670;6.750;2023-07-29T05:08:22;17.00;99.90
60293;DHT22;52402;52.670;6.750;2023-07-29T05:10:52;17.00;99.90
60293;DHT22;52402;52.670;6.750;2023-07-29T05:13:18;17.00;99.90
60293;DHT22;52402;52.670;6.750;2023-07-29T05:15:44;17.00;99.90
60293;DHT22;52402;52.670;6.750;2023-07-29T05:18:10;17.10;99.90
60293;DHT22;52402;52.670;6.750;2023-07-29T05:20:36;17.10;99.90
60293;DHT22;52402;52.670;6.750;2023-07-29T05:23:02;17.10;99.90
60293;DHT22;52402;52.670;6.750;2023-07-29T05:25:27;17.20;99.90
60293;DHT22;52402;52.670;6.750;2023-07-29T05:27:53;17.20;99.90
60293;DHT22;52402;52.670;6.750;2023-07-29T05:30:19;17.20;99.90
60293;DHT22;52402;52.670;6.750;2023-07-29T05:32:44;17.30;99.90
60293;DHT22;52402;52.670;6.750;2023-07-29T05:35:10;17.30;99.90
60293;DHT22;52402;52.670;6.750;2023-07-29T05:37:39;17.40;99.90
60293;DHT22;52402;52.670;6.750;2023-07-29T05:40:08;17.40;99.90
60293;DHT22;52402;52.670;6.750;2023-07-29T05:42:36;17.40;99.90
60293;DHT22;52402;52.670;6.750;2023-07-29T05:45:02;17.40;99.90
60293;DHT22;52402;52.670;6.750;2023-07-29T05:47:28;17.40;99.90
60293;DHT22;52402;52.670;6.750;2023-07-29T05:49:53;17.50;99.90
60293;DHT22;52402;52.670;6.750;2023-07-29T05:52:20;17.50;99.90
60293;DHT22;52402;52.670;6.750;2023-07-29T05:54:45;17.50;99.90
60293;DHT22;52402;52.670;6.750;2023-07-29T05:57:11;17.50;99.90
60293;DHT22;52402;52.670;6.750;2023-07-29T05:59:37;17.60;99.90
60293;DHT22;52402;52.670;6.750;2023-07-29T06:02:03;17.60;99.90
60293;DHT22;52402;52.670;6.750;2023-07-29T06:04:29;17.60;99.90
60293;DHT22;52402;52.670;6.750;2023-07-29T06:06:56;17.60;99.90
60293;DHT22;52402;52.670;6.750;2023-07-29T06:09:23;17.70;99.90
60293;DHT22;52402;52.670;6.750;2023-07-29T06:11:50;17.80;99.90
60293;DHT22;52402;52.670;6.750;2023-07-29T06:14:18;17.80;99.90
60293;DHT22;52402;52.670;6.750;2023-07-29T06:16:43;17.90;99.90
60293;DHT22;52402;52.670;6.750;2023-07-29T06:19:13;18.00;99.90
60293;DHT22;52402;52.670;6.750;2023-07-29T06:21:39;18.00;99.90
60293;DHT22;52402;52.670;6.750;2023-07-29T06:24:04;18.10;99.90
60293;DHT22;52402;52.670;6.750;2023-07-29T06:26:30;18.20;99.90
60293;DHT22;52402;52.670;6.750;2023-07-29T06:28:56;18.20;99.90
60293;DHT22;52402;52.670;6.750;2023-07-29T06:31:22;18.30;99.90
60293;DHT22;52402;52.670;6.750;2023-07-29T06:33:47;18.30;99.90
60293;DHT22;52402;52.670;6.750;2023-07-29T06:36:13;18.30;99.90
60293;DHT22;52402;52.670;6.750;2023-07-29T06:38:39;18.40;99.90
60293;DHT22;52402;52.670;6.750;2023-07-29T06:41:05;18.40;99.90
60293;DHT22;52402;52.670;6.750;2023-07-29T06:43:30;18.40;99.90
60293;DHT22;52402;52.670;6.750;2023-07-29T06:45:56;18.50;99.90
60293;DHT22;52402;52.670;6.750;2023-07-29T06:48:22;18.60;99.90
60293;DHT22;52402;52.670;6.750;2023-07-29T06:50:48;18.60;99.90
60293;DHT22;52402;52.670;6.750;2023-07-29T06:53:15;18.70;99.90
60293;DHT22;52402;52.670;6.750;2023-07-29T06:55:41;18.70;99.90
60293;DHT22;52402;52.670;6.750;2023-07-29T06:58:07;18.70;99.90
60293;DHT22;52402;52.670;6.750;2023-07-29T07:00:32;18.70;99.90
60293;DHT22;52402;52.670;6.750;2023-07-29T07:02:58;18.80;99.90
60293;DHT22;52402;52.670;6.750;2023-07-29T07:05:24;18.90;99.90
60293;DHT22;52402;52.670;6.750;2023-07-29T07:07:50;19.00;99.90
60293;DHT22;52402;52.670;6.750;2023-07-29T07:10:15;19.00;99.90
60293;DHT22;52402;52.670;6.750;2023-07-29T07:12:41;19.00;99.90
60293;DHT22;52402;52.670;6.750;2023-07-29T07:15:07;19.00;99.90
60293;DHT22;52402;52.670;6.750;2023-07-29T07:17:33;18.90;99.90
60293;DHT22;52402;52.670;6.750;2023-07-29T07:19:58;18.80;99.90
60293;DHT22;52402;52.670;6.750;2023-07-29T07:22:24;19.00;99.90
60293;DHT22;52402;52.670;6.750;2023-07-29T07:24:50;19.20;99.90
60293;DHT22;52402;52.670;6.750;2023-07-29T07:27:15;19.20;99.90
60293;DHT22;52402;52.670;6.750;2023-07-29T07:29:41;19.40;99.90
60293;DHT22;52402;52.670;6.750;2023-07-29T07:32:06;19.60;99.90
60293;DHT22;52402;52.670;6.750;2023-07-29T07:34:32;19.60;99.90
60293;DHT22;52402;52.670;6.750;2023-07-29T07:36:58;19.60;99.90
60293;DHT22;52402;52.670;6.750;2023-07-29T07:39:24;19.60;99.90
60293;DHT22;52402;52.670;6.750;2023-07-29T07:41:50;19.70;99.90
60293;DHT22;52402;52.670;6.750;2023-07-29T07:44:15;19.80;99.90
60293;DHT22;52402;52.670;6.750;2023-07-29T07:46:43;20.00;99.90
60293;DHT22;52402;52.670;6.750;2023-07-29T07:49:10;19.90;99.90
60293;DHT22;52402;52.670;6.750;2023-07-29T07:51:35;20.00;99.90
60293;DHT22;52402;52.670;6.750;2023-07-29T07:54:01;20.10;99.90
60293;DHT22;52402;52.670;6.750;2023-07-29T07:56:26;20.20;99.90
60293;DHT22;52402;52.670;6.750;2023-07-29T07:58:52;20.40;99.90
60293;DHT22;52402;52.670;6.750;2023-07-29T08:01:18;20.50;99.90
60293;DHT22;52402;52.670;6.750;2023-07-29T08:03:43;20.50;99.90
60293;DHT22;52402;52.670;6.750;2023-07-29T08:06:09;20.50;99.90
60293;DHT22;52402;52.670;6.750;2023-07-29T08:08:34;20.50;99.90
60293;DHT22;52402;52.670;6.750;2023-07-29T08:11:00;20.60;99.90
60293;DHT22;52402;52.670;6.750;2023-07-29T08:13:26;20.70;99.90
60293;DHT22;52402;52.670;6.750;2023-07-29T08:15:52;20.80;99.90
60293;DHT22;52402;52.670;6.750;2023-07-29T08:18:19;21.00;99.90
60293;DHT22;52402;52.670;6.750;2023-07-29T08:20:58;21.00;99.90
60293;DHT22;52402;52.670;6.750;2023-07-29T08:23:27;21.10;99.90
60293;DHT22;52402;52.670;6.750;2023-07-29T08:25:54;20.90;99.90
60293;DHT22;52402;52.670;6.750;2023-07-29T08:28:22;20.80;99.90
60293;DHT22;52402;52.670;6.750;2023-07-29T08:30:48;20.90;99.90
60293;DHT22;52402;52.670;6.750;2023-07-29T08:33:14;20.90;99.90
60293;DHT22;52402;52.670;6.750;2023-07-29T08:35:39;20.90;99.90
60293;DHT22;52402;52.670;6.750;2023-07-29T08:38:05;21.00;99.90
60293;DHT22;52402;52.670;6.750;2023-07-29T08:40:32;21.20;99.90
60293;DHT22;52402;52.670;6.750;2023-07-29T08:43:04;21.40;99.90
60293;DHT22;52402;52.670;6.750;2023-07-29T08:45:34;21.50;99.90
60293;DHT22;52402;52.670;6.750;2023-07-29T08:48:00;21.50;99.90
60293;DHT22;52402;52.670;6.750;2023-07-29T08:50:28;21.40;99.90
60293;DHT22;52402;52.670;6.750;2023-07-29T08:52:55;21.40;99.90
60293;DHT22;52402;52.670;6.750;2023-07-29T08:55:21;21.40;99.90
60293;DHT22;52402;52.670;6.750;2023-07-29T08:57:47;21.30;99.90
60293;DHT22;52402;52.670;6.750;2023-07-29T09:00:13;21.20;99.90
60293;DHT22;52402;52.670;6.750;2023-07-29T09:02:39;21.20;99.90
60293;DHT22;52402;52.670;6.750;2023-07-29T09:05:05;21.10;99.90
60293;DHT22;52402;52.670;6.750;2023-07-29T09:07:31;21.20;99.90
60293;DHT22;52402;52.670;6.750;2023-07-29T09:09:58;21.20;99.90
60293;DHT22;52402;52.670;6.750;2023-07-29T09:12:23;21.50;99.90
60293;DHT22;52402;52.670;6.750;2023-07-29T09:14:52;21.40;99.90
60293;DHT22;52402;52.670;6.750;2023-07-29T09:17:18;21.70;99.90
60293;DHT22;52402;52.670;6.750;2023-07-29T09:19:48;21.90;99.90
60293;DHT22;52402;52.670;6.750;2023-07-29T09:22:20;22.00;99.90
60293;DHT22;52402;52.670;6.750;2023-07-29T09:24:46;22.00;99.90
60293;DHT22;52402;52.670;6.750;2023-07-29T09:27:28;22.00;99.90
60293;DHT22;52402;52.670;6.750;2023-07-29T09:29:57;22.20;99.90
60293;DHT22;52402;52.670;6.750;2023-07-29T09:32:24;22.50;99.90
60293;DHT22;52402;52.670;6.750;2023-07-29T09:34:51;22.40;99.90
60293;DHT22;52402;52.670;6.750;2023-07-29T09:37:23;22.50;99.90
60293;DHT22;52402;52.670;6.750;2023-07-29T09:39:49;22.80;99.90
60293;DHT22;52402;52.670;6.750;2023-07-29T09:42:19;23.10;99.90
60293;DHT22;52402;52.670;6.750;2023-07-29T09:44:45;23.20;99.90
60293;DHT22;52402;52.670;6.750;2023-07-29T09:47:25;23.00;99.90
60293;DHT22;52402;52.670;6.750;2023-07-29T09:49:52;22.90;99.90
60293;DHT22;52402;52.670;6.750;2023-07-29T09:52:19;22.80;99.90
60293;DHT22;52402;52.670;6.750;2023-07-29T09:54:46;22.70;99.90
60293;DHT22;52402;52.670;6.750;2023-07-29T09:57:17;22.80;99.90
60293;DHT22;52402;52.670;6.750;2023-07-29T09:59:43;22.80;99.90
60293;DHT22;52402;52.670;6.750;2023-07-29T10:02:18;22.80;99.90
60293;DHT22;52402;52.670;6.750;2023-07-29T10:04:46;22.80;99.90
60293;DHT22;52402;52.670;6.750;2023-07-29T10:07:12;23.00;99.90
60293;DHT22;52402;52.670;6.750;2023-07-29T10:09:39;23.10;99.90
60293;DHT22;52402;52.670;6.750;2023-07-29T10:12:06;23.20;99.90
60293;DHT22;52402;52.670;6.750;2023-07-29T10:14:33;23.10;99.90
60293;DHT22;52402;52.670;6.750;2023-07-29T10:16:59;23.10;99.90
60293;DHT22;52402;52.670;6.750;2023-07-29T10:19:25;23.30;99.90
60293;DHT22;52402;52.670;6.750;2023-07-29T10:21:52;23.30;99.90
60293;DHT22;52402;52.670;6.750;2023-07-29T10:24:22;23.10;99.90
60293;DHT22;52402;52.670;6.750;2023-07-29T10:26:59;23.00;99.90
60293;DHT22;52402;52.670;6.750;2023-07-29T10:29:30;22.90;99.90
60293;DHT22;52402;52.670;6.750;2023-07-29T10:31:58;23.10;99.90
60293;DHT22;52402;52.670;6.750;2023-07-29T10:34:26;23.30;99.90
60293;DHT22;52402;52.670;6.750;2023-07-29T10:36:52;23.40;99.90
60293;DHT22;52402;52.670;6.750;2023-07-29T10:39:19;23.40;99.90
60293;DHT22;52402;52.670;6.750;2023-07-29T10:41:57;23.50;99.90
60293;DHT22;52402;52.670;6.750;2023-07-29T10:47:14;23.70;99.90
60293;DHT22;52402;52.670;6.750;2023-07-29T10:49:44;24.00;99.90
60293;DHT22;52402;52.670;6.750;2023-07-29T10:52:14;24.10;99.90
60293;DHT22;52402;52.670;6.750;2023-07-29T10:54:46;24.30;99.90
60293;DHT22;52402;52.670;6.750;2023-07-29T10:57:16;24.40;99.90
60293;DHT22;52402;52.670;6.750;2023-07-29T10:59:56;24.10;99.90
60293;DHT22;52402;52.670;6.750;2023-07-29T11:02:31;23.80;99.90
60293;DHT22;52402;52.670;6.750;2023-07-29T11:04:58;23.70;99.90
60293;DHT22;52402;52.670;6.750;2023-07-29T11:07:28;23.60;99.90
60293;DHT22;52402;52.670;6.750;2023-07-29T11:09:56;23.40;99.90
60293;DHT22;52402;52.670;6.750;2023-07-29T11:12:38;23.40;99.90
60293;DHT22;52402;52.670;6.750;2023-07-29T11:15:16;23.40;99.90
60293;DHT22;52402;52.670;6.750;2023-07-29T11:17:48;23.40;99.90
60293;DHT22;52402;52.670;6.750;2023-07-29T11:20:15;23.60;99.90
60293;DHT22;52402;52.670;6.750;2023-07-29T11:22:41;23.70;99.90
60293;DHT22;52402;52.670;6.750;2023-07-29T11:25:08;23.50;99.90
60293;DHT22;52402;52.670;6.750;2023-07-29T11:27:35;23.50;99.90
60293;DHT22;52402;52.670;6.750;2023-07-29T11:30:03;23.60;99.90
60293;DHT22;52402;52.670;6.750;2023-07-29T11:32:31;23.50;99.90
60293;DHT22;52402;52.670;6.750;2023-07-29T11:35:01;23.90;99.90
60293;DHT22;52402;52.670;6.750;2023-07-29T11:37:26;24.20;99.90
60293;DHT22;52402;52.670;6.750;2023-07-29T11:39:52;24.20;99.90
60293;DHT22;52402;52.670;6.750;2023-07-29T11:42:18;24.00;99.90
60293;DHT22;52402;52.670;6.750;2023-07-29T11:44:43;24.00;99.90
60293;DHT22;52402;52.670;6.750;2023-07-29T11:47:10;24.30;99.90
60293;DHT22;52402;52.670;6.750;2023-07-29T11:49:37;24.50;99.90
60293;DHT22;52402;52.670;6.750;2023-07-29T11:52:04;24.80;99.90
60293;DHT22;52402;52.670;6.750;2023-07-29T11:54:31;25.10;99.90
60293;DHT22;52402;52.670;6.750;2023-07-29T11:56:57;25.40;99.90
60293;DHT22;52402;52.670;6.750;2023-07-29T11:59:23;25.20;99.90
60293;DHT22;52402;52.670;6.750;2023-07-29T12:01:49;25.30;99.90
60293;DHT22;52402;52.670;6.750;2023-07-29T12:04:15;25.20;99.90
60293;DHT22;52402;52.670;6.750;2023-07-29T12:06:41;24.90;99.90
60293;DHT22;52402;52.670;6.750;2023-07-29T12:09:07;24.80;99.90
60293;DHT22;52402;52.670;6.750;2023-07-29T12:11:34;25.00;99.90
60293;DHT22;52402;52.670;6.750;2023-07-29T12:14:00;25.00;99.90
60293;DHT22;52402;52.670;6.750;2023-07-29T12:16:26;25.10;99.90
60293;DHT22;52402;52.670;6.750;2023-07-29T12:18:51;24.90;99.90
60293;DHT22;52402;52.670;6.750;2023-07-29T12:21:19;25.10;99.90
60293;DHT22;52402;52.670;6.750;2023-07-29T12:23:44;25.00;99.90
60293;DHT22;52402;52.670;6.750;2023-07-29T12:26:10;25.00;99.90
60293;DHT22;52402;52.670;6.750;2023-07-29T12:28:36;25.40;99.90
60293;DHT22;52402;52.670;6.750;2023-07-29T12:31:01;25.70;99.90
60293;DHT22;52402;52.670;6.750;2023-07-29T12:33:35;26.00;99.90
60293;DHT22;52402;52.670;6.750;2023-07-29T12:36:02;26.30;99.90
60293;DHT22;52402;52.670;6.750;2023-07-29T12:38:28;26.40;99.90
60293;DHT22;52402;52.670;6.750;2023-07-29T12:40:54;26.70;99.90
60293;DHT22;52402;52.670;6.750;2023-07-29T12:43:20;26.50;99.90
60293;DHT22;52402;52.670;6.750;2023-07-29T12:45:46;26.30;99.90
60293;DHT22;52402;52.670;6.750;2023-07-29T12:48:12;26.10;99.90
60293;DHT22;52402;52.670;6.750;2023-07-29T12:50:38;25.70;99.90
60293;DHT22;52402;52.670;6.750;2023-07-29T12:53:08;25.50;99.90
60293;DHT22;52402;52.670;6.750;2023-07-29T12:55:35;25.30;99.90
60293;DHT22;52402;52.670;6.750;2023-07-29T12:58:01;24.90;99.90
60293;DHT22;52402;52.670;6.750;2023-07-29T13:00:27;24.90;99.90
60293;DHT22;52402;52.670;6.750;2023-07-29T13:02:53;25.40;99.90
60293;DHT22;52402;52.670;6.750;2023-07-29T13:05:19;25.90;99.90
60293;DHT22;52402;52.670;6.750;2023-07-29T13:07:45;25.80;99.90
60293;DHT22;52402;52.670;6.750;2023-07-29T13:10:12;25.80;99.90
60293;DHT22;52402;52.670;6.750;2023-07-29T13:12:38;25.80;99.90
60293;DHT22;52402;52.670;6.750;2023-07-29T13:15:05;26.00;99.90
60293;DHT22;52402;52.670;6.750;2023-07-29T13:17:31;26.10;99.90
60293;DHT22;52402;52.670;6.750;2023-07-29T13:19:56;25.90;99.90
60293;DHT22;52402;52.670;6.750;2023-07-29T13:22:22;25.70;99.90
60293;DHT22;52402;52.670;6.750;2023-07-29T13:24:48;25.80;99.90
60293;DHT22;52402;52.670;6.750;2023-07-29T13:27:13;26.00;99.90
60293;DHT22;52402;52.670;6.750;2023-07-29T13:29:39;26.10;99.90
60293;DHT22;52402;52.670;6.750;2023-07-29T13:32:06;26.20;99.90
60293;DHT22;52402;52.670;6.750;2023-07-29T13:34:31;26.00;99.90
60293;DHT22;52402;52.670;6.750;2023-07-29T13:36:57;26.30;99.90
60293;DHT22;52402;52.670;6.750;2023-07-29T13:39:23;26.60;99.90
60293;DHT22;52402;52.670;6.750;2023-07-29T13:41:49;27.00;99.90
60293;DHT22;52402;52.670;6.750;2023-07-29T13:44:14;27.20;99.90
60293;DHT22;52402;52.670;6.750;2023-07-29T13:46:40;27.50;99.90
60293;DHT22;52402;52.670;6.750;2023-07-29T13:49:05;27.50;99.90
60293;DHT22;52402;52.670;6.750;2023-07-29T13:51:31;27.70;99.90
60293;DHT22;52402;52.670;6.750;2023-07-29T13:53:56;26.90;99.90
60293;DHT22;52402;52.670;6.750;2023-07-29T13:56:22;27.00;99.60
60293;DHT22;52402;52.670;6.750;2023-07-29T13:58:48;27.10;99.90
60293;DHT22;52402;52.670;6.750;2023-07-29T14:01:14;27.30;99.90
60293;DHT22;52402;52.670;6.750;2023-07-29T14:03:40;27.30;99.90
60293;DHT22;52402;52.670;6.750;2023-07-29T14:06:06;27.00;99.90
60293;DHT22;52402;52.670;6.750;2023-07-29T14:08:31;26.90;99.90
60293;DHT22;52402;52.670;6.750;2023-07-29T14:10:57;26.60;99.90
60293;DHT22;52402;52.670;6.750;2023-07-29T14:13:23;26.30;99.90
60293;DHT22;52402;52.670;6.750;2023-07-29T14:15:48;26.10;99.90
60293;DHT22;52402;52.670;6.750;2023-07-29T14:18:14;26.20;99.90
60293;DHT22;52402;52.670;6.750;2023-07-29T14:20:40;26.60;99.90
60293;DHT22;52402;52.670;6.750;2023-07-29T14:23:06;26.90;99.90
60293;DHT22;52402;52.670;6.750;2023-07-29T14:25:31;26.80;99.90
60293;DHT22;52402;52.670;6.750;2023-07-29T14:27:57;26.60;99.90
60293;DHT22;52402;52.670;6.750;2023-07-29T14:30:22;26.30;99.90
60293;DHT22;52402;52.670;6.750;2023-07-29T14:32:48;26.00;99.90
60293;DHT22;52402;52.670;6.750;2023-07-29T14:35:14;25.60;99.90
60293;DHT22;52402;52.670;6.750;2023-07-29T14:37:39;25.30;99.90
60293;DHT22;52402;52.670;6.750;2023-07-29T14:40:06;25.00;99.90
60293;DHT22;52402;52.670;6.750;2023-07-29T14:42:31;24.80;99.90
60293;DHT22;52402;52.670;6.750;2023-07-29T14:44:57;24.60;99.90
60293;DHT22;52402;52.670;6.750;2023-07-29T14:47:22;24.40;99.90
60293;DHT22;52402;52.670;6.750;2023-07-29T14:49:48;24.20;99.90
60293;DHT22;52402;52.670;6.750;2023-07-29T14:52:14;23.90;99.90
60293;DHT22;52402;52.670;6.750;2023-07-29T14:54:39;23.80;99.90
60293;DHT22;52402;52.670;6.750;2023-07-29T14:57:06;23.60;99.90
60293;DHT22;52402;52.670;6.750;2023-07-29T14:59:32;23.50;99.90
60293;DHT22;52402;52.670;6.750;2023-07-29T15:01:58;23.30;99.90
60293;DHT22;52402;52.670;6.750;2023-07-29T15:04:24;23.10;99.90
60293;DHT22;52402;52.670;6.750;2023-07-29T15:06:50;22.80;99.90
60293;DHT22;52402;52.670;6.750;2023-07-29T15:09:16;22.40;99.90
60293;DHT22;52402;52.670;6.750;2023-07-29T15:11:41;22.20;99.90
60293;DHT22;52402;52.670;6.750;2023-07-29T15:14:07;21.90;99.90
60293;DHT22;52402;52.670;6.750;2023-07-29T15:16:33;21.60;99.90
60293;DHT22;52402;52.670;6.750;2023-07-29T15:19:03;21.40;99.90
60293;DHT22;52402;52.670;6.750;2023-07-29T15:21:29;21.20;99.90
60293;DHT22;52402;52.670;6.750;2023-07-29T15:23:55;21.10;99.90
60293;DHT22;52402;52.670;6.750;2023-07-29T15:26:21;21.00;99.90
60293;DHT22;52402;52.670;6.750;2023-07-29T15:28:46;20.90;99.90
60293;DHT22;52402;52.670;6.750;2023-07-29T15:31:15;20.90;99.90
60293;DHT22;52402;52.670;6.750;2023-07-29T15:33:41;21.00;99.90
60293;DHT22;52402;52.670;6.750;2023-07-29T15:36:06;20.90;99.90
60293;DHT22;52402;52.670;6.750;2023-07-29T15:38:32;21.20;99.90